createdAt,value
2022-09-27T00:00:17.676Z,11.8
2022-09-27T00:05:19.532Z,11.9
2022-09-27T00:15:21.798Z,11.8
2022-09-27T00:20:23.759Z,11.8
2022-09-27T00:25:25.771Z,11.8
2022-09-27T00:30:27.692Z,11.8
2022-09-27T00:35:29.615Z,11.8
2022-09-27T00:40:31.699Z,11.6
2022-09-27T00:45:33.785Z,11.5
2022-09-27T00:50:35.710Z,11.5
2022-09-27T00:55:37.977Z,11.4
2022-09-27T01:00:40.023Z,11.3
2022-09-27T01:05:41.979Z,11.2
2022-09-27T01:10:43.906Z,11.1
2022-09-27T01:15:45.973Z,10.8
2022-09-27T01:20:48.018Z,10.6
2022-09-27T01:25:49.997Z,10.7
2022-09-27T01:30:52.267Z,10.7
2022-09-27T01:35:54.430Z,10.8
2022-09-27T01:40:56.587Z,10.7
2022-09-27T01:45:58.796Z,10.8
2022-09-27T01:56:01.771Z,10.8
2022-09-27T02:01:04.119Z,10.8
2022-09-27T02:06:06.149Z,10.7
2022-09-27T02:11:08.182Z,10.7
2022-09-27T02:16:10.255Z,10.7
2022-09-27T02:21:13.827Z,10.5
2022-09-27T02:26:15.814Z,10.5
2022-09-27T02:31:18.115Z,10.6
2022-09-27T02:36:20.092Z,10.7
2022-09-27T02:41:22.370Z,10.6
2022-09-27T02:46:24.864Z,10.6
2022-09-27T02:51:26.974Z,10.5
2022-09-27T02:56:28.869Z,10.6
2022-09-27T03:01:31.267Z,10.6
2022-09-27T03:06:33.301Z,10.7
2022-09-27T03:11:35.224Z,10.6
2022-09-27T03:16:37.795Z,10.4
2022-09-27T03:21:40.071Z,10.4
2022-09-27T03:26:41.956Z,10.4
2022-09-27T03:31:43.893Z,10.3
2022-09-27T03:36:45.959Z,10.3
2022-09-27T03:41:47.870Z,10.2
2022-09-27T03:46:49.841Z,10.1
2022-09-27T03:51:51.801Z,10.1
2022-09-27T03:56:53.686Z,9.9
2022-09-27T04:01:55.967Z,10
2022-09-27T04:06:58.053Z,10
2022-09-27T04:11:59.965Z,10.1
2022-09-27T04:17:02.494Z,9.9
2022-09-27T04:22:04.755Z,9.9
2022-09-27T04:27:06.670Z,9.9
2022-09-27T04:32:08.610Z,9.9
2022-09-27T04:42:10.806Z,9.9
2022-09-27T04:47:13.177Z,9.9
2022-09-27T04:52:15.188Z,9.9
2022-09-27T04:57:17.326Z,10
2022-09-27T05:02:19.549Z,10.1
2022-09-27T05:07:21.524Z,10.1
2022-09-27T05:12:23.522Z,10.3
2022-09-27T05:17:25.377Z,10.6
2022-09-27T05:22:27.257Z,10.6
2022-09-27T05:27:29.663Z,10.8
2022-09-27T05:32:31.529Z,10.8
2022-09-27T05:37:33.426Z,11.1
2022-09-27T05:42:35.869Z,11.4
2022-09-27T05:47:37.814Z,11.8
2022-09-27T05:52:39.701Z,12.2
2022-09-27T05:57:41.667Z,12.2
2022-09-27T06:02:44.769Z,12.6
2022-09-27T06:12:47.492Z,12.5
2022-09-27T06:17:49.651Z,12.3
2022-09-27T06:22:51.617Z,12.3
2022-09-27T06:27:53.499Z,12.2
2022-09-27T06:32:56.077Z,12.4
2022-09-27T06:37:58.266Z,12.8
2022-09-27T06:43:00.198Z,13.1
2022-09-27T06:48:02.206Z,13.3
2022-09-27T06:53:04.071Z,13.6
2022-09-27T06:58:05.953Z,13.9
2022-09-27T07:03:08.350Z,14.1
2022-09-27T07:08:10.331Z,14.4
2022-09-27T07:13:12.333Z,14.3
2022-09-27T07:18:14.246Z,14.5
2022-09-27T07:23:16.135Z,14.3
2022-09-27T07:28:23.675Z,14.2
2022-09-27T07:33:25.612Z,14.2
2022-09-27T07:38:27.508Z,14.5
2022-09-27T07:43:29.787Z,14.4
2022-09-27T07:48:31.709Z,14.4
2022-09-27T07:53:34.153Z,14.5
2022-09-27T07:58:36.049Z,14.5
2022-09-27T08:03:38.057Z,14.7
2022-09-27T08:08:40.152Z,15
2022-09-27T08:13:42.081Z,15
2022-09-27T08:18:43.997Z,15.7
2022-09-27T08:28:46.402Z,18.4
2022-09-27T08:33:48.385Z,18.5
2022-09-27T08:38:50.943Z,16.5
2022-09-27T08:43:52.986Z,16.5
2022-09-27T08:48:54.910Z,16.3
2022-09-27T08:53:56.858Z,16.3
2022-09-27T08:58:59.073Z,16
2022-09-27T09:04:01.676Z,15.5
2022-09-27T09:09:04.410Z,15.8
2022-09-27T09:14:13.405Z,15.4
2022-09-27T09:19:16.112Z,15.4
2022-09-27T09:24:18.821Z,15.6
2022-09-27T09:29:20.782Z,15.6
2022-09-27T09:34:23.239Z,15.9
2022-09-27T09:44:26.638Z,16.5
2022-09-27T09:49:29.005Z,16.1
2022-09-27T09:54:31.012Z,16.3
2022-09-27T09:59:33.182Z,17
2022-09-27T10:04:35.945Z,16.9
2022-09-27T10:09:38.513Z,17.2
2022-09-27T10:14:40.471Z,17.2
2022-09-27T10:19:42.865Z,17.1
2022-09-27T10:24:45.012Z,17.1
2022-09-27T10:29:47.079Z,16.8
2022-09-27T10:34:49.359Z,16.8
2022-09-27T10:39:51.796Z,16.3
2022-09-27T10:44:53.695Z,16.3
2022-09-27T10:49:56.297Z,16.2
2022-09-27T10:54:58.198Z,16.2
2022-09-27T11:00:00.119Z,16.9
2022-09-27T11:05:03.049Z,18.5
2022-09-27T11:10:05.555Z,18
2022-09-27T11:15:07.458Z,18
2022-09-27T11:20:09.441Z,18.3
2022-09-27T11:25:11.631Z,18.3
2022-09-27T11:30:13.682Z,19.5
2022-09-27T11:35:15.745Z,20.7
2022-09-27T11:40:18.328Z,18.8
2022-09-27T11:46:17.692Z,18.8
2022-09-27T11:50:29.512Z,18.8
2022-09-27T11:55:32.364Z,20.3
2022-09-27T12:00:34.453Z,20.3
2022-09-27T12:05:36.698Z,21.4
2022-09-27T12:10:38.830Z,21.8
2022-09-27T12:15:41.252Z,20.7
2022-09-27T12:20:43.374Z,19.7
2022-09-27T12:25:45.354Z,19
2022-09-27T12:30:47.378Z,18.8
2022-09-27T12:35:49.237Z,19.6
2022-09-27T12:40:51.759Z,20.7
2022-09-27T12:45:53.805Z,20.7
2022-09-27T12:50:55.759Z,22.2
2022-09-27T12:55:58.134Z,20.7
2022-09-27T13:01:00.813Z,19.8
2022-09-27T13:06:02.896Z,19.7
2022-09-27T13:11:04.944Z,21
2022-09-27T13:16:07.047Z,21.5
2022-09-27T13:21:09.152Z,20.7
2022-09-27T13:26:11.672Z,20.2
2022-09-27T13:31:18.103Z,20
2022-09-27T13:36:20.086Z,20
2022-09-27T13:41:22.514Z,20.2
2022-09-27T13:46:24.606Z,20.2
2022-09-27T13:51:26.582Z,20.2
2022-09-27T13:56:31.150Z,20
2022-09-27T14:01:33.899Z,19.9
2022-09-27T14:06:36.245Z,19.8
2022-09-27T14:11:38.610Z,20.2
2022-09-27T14:16:40.731Z,20.2
2022-09-27T14:21:42.839Z,20.2
2022-09-27T14:26:45.191Z,19.5
2022-09-27T14:36:48.653Z,19.5
2022-09-27T14:41:50.749Z,19.5
2022-09-27T14:46:52.780Z,19.3
2022-09-27T14:51:54.740Z,19.2
2022-09-27T14:56:57.515Z,19.4
2022-09-27T15:01:59.493Z,19.4
2022-09-27T15:07:01.869Z,19.4
2022-09-27T15:12:04.502Z,18.8
2022-09-27T15:17:06.553Z,18.8
2022-09-27T15:22:08.644Z,18.6
2022-09-27T15:27:10.613Z,18.4
2022-09-27T15:32:12.526Z,18.4
2022-09-27T15:37:14.429Z,18.2
2022-09-27T15:42:16.415Z,18.1
2022-09-27T15:47:18.413Z,18
2022-09-27T15:52:20.344Z,18
2022-09-27T15:57:22.349Z,18
2022-09-27T16:02:24.673Z,18
2022-09-27T16:07:26.741Z,17
2022-09-27T16:12:28.840Z,15.3
2022-09-27T16:17:30.892Z,14.3
2022-09-27T16:22:32.795Z,14
2022-09-27T16:27:34.693Z,13.9
2022-09-27T16:32:36.685Z,13.9
2022-09-27T16:37:38.655Z,13.6
2022-09-27T16:42:40.622Z,13.5
2022-09-27T16:47:42.594Z,13.5
2022-09-27T16:52:44.515Z,13.4
2022-09-27T16:57:46.436Z,13.3
2022-09-27T17:02:49.834Z,13.1
2022-09-27T17:07:54.073Z,13
2022-09-27T17:12:56.034Z,13
2022-09-27T17:17:57.979Z,12.9
2022-09-27T17:23:00.327Z,12.8
2022-09-27T17:28:02.669Z,12.7
2022-09-27T17:33:04.878Z,12.7
2022-09-27T17:38:06.799Z,12.7
2022-09-27T17:43:08.713Z,12.7
2022-09-27T17:48:15.484Z,12.6
2022-09-27T17:53:18.436Z,12.6
2022-09-27T17:58:20.995Z,12.6
2022-09-27T18:03:22.943Z,12.6
2022-09-27T18:08:24.823Z,12.6
2022-09-27T18:13:26.739Z,12.5
2022-09-27T18:18:28.704Z,12.5
2022-09-27T18:23:30.639Z,12.5
2022-09-27T18:28:32.584Z,12.5
2022-09-27T18:33:34.553Z,12.8
2022-09-27T18:38:36.584Z,12.8
2022-09-27T18:43:40.768Z,12.6
2022-09-27T18:48:43.485Z,12.6
2022-09-27T18:53:45.437Z,12.5
2022-09-27T18:58:47.452Z,12.1
2022-09-27T19:03:49.378Z,12
2022-09-27T19:08:51.349Z,12.1
2022-09-27T19:13:53.433Z,12
2022-09-27T19:18:55.471Z,11.9
2022-09-27T19:23:57.432Z,11.9
2022-09-27T19:28:59.402Z,11.8
2022-09-27T19:34:02.675Z,11.7
2022-09-27T19:39:04.648Z,11.7
2022-09-27T19:49:07.398Z,11.8
2022-09-27T19:54:09.260Z,11.7
2022-09-27T19:59:11.188Z,11.8
2022-09-27T20:04:13.179Z,11.7
2022-09-27T20:09:15.336Z,11.8
2022-09-27T20:14:17.708Z,11.8
2022-09-27T20:19:19.704Z,11.7
2022-09-27T20:24:21.725Z,11.8
2022-09-27T20:29:23.943Z,11.7
2022-09-27T20:34:25.950Z,11.7
2022-09-27T20:39:28.039Z,11.7
2022-09-27T20:44:29.960Z,11.7
2022-09-27T20:54:32.769Z,11.6
2022-09-27T20:59:34.783Z,11.6
2022-09-27T21:04:36.632Z,11.6
2022-09-27T21:09:38.694Z,11.6
2022-09-27T21:19:41.749Z,11.4
2022-09-27T21:24:43.625Z,11.3
2022-09-27T21:29:45.669Z,11.2
2022-09-27T21:34:48.022Z,11.1
2022-09-27T21:39:49.962Z,11
2022-09-27T21:44:51.888Z,11
2022-09-27T21:49:54.045Z,10.9
2022-09-27T21:54:55.982Z,10.9
2022-09-27T21:59:57.892Z,10.8
2022-09-27T22:04:59.840Z,10.7
2022-09-27T22:10:01.742Z,10.7
2022-09-27T22:15:04.130Z,10.8
2022-09-27T22:20:06.075Z,10.7
2022-09-27T22:25:07.996Z,10.8
2022-09-27T22:30:10.088Z,10.8
2022-09-27T22:35:12.120Z,10.8
2022-09-27T22:40:14.051Z,10.8
2022-09-27T22:45:16.470Z,10.8
2022-09-27T22:50:18.875Z,10.8
2022-09-27T22:55:20.847Z,10.8
2022-09-27T23:05:23.846Z,10.8
2022-09-27T23:10:25.754Z,10.9
2022-09-27T23:15:27.772Z,10.9
2022-09-27T23:20:29.737Z,10.9
2022-09-27T23:25:31.845Z,10.9
2022-09-27T23:30:34.015Z,10.9
2022-09-27T23:35:36.150Z,10.9
2022-09-27T23:40:38.296Z,10.8
2022-09-27T23:45:40.413Z,10.7
2022-09-27T23:50:42.570Z,10.6
2022-09-27T23:55:44.681Z,10.6
